createdAt,value
2019-05-20T00:03:45.787Z,32.47
2019-05-20T00:08:51.172Z,33.23
2019-05-20T00:13:56.322Z,32.87
2019-05-20T00:19:01.536Z,34.67
2019-05-20T00:24:07.077Z,32.50
2019-05-20T00:29:12.659Z,31.77
2019-05-20T00:34:26.654Z,32.90
2019-05-20T00:39:25.101Z,33.43
2019-05-20T00:44:30.687Z,32.43
2019-05-20T00:49:36.392Z,34.63
2019-05-20T00:54:41.709Z,32.30
2019-05-20T00:59:47.116Z,31.80
2019-05-20T01:04:52.515Z,33.47
2019-05-20T01:09:57.869Z,31.63
2019-05-20T01:15:03.066Z,30.13
2019-05-20T01:20:09.428Z,28.43
2019-05-20T01:25:14.701Z,28.10
2019-05-20T01:30:21.869Z,27.57
2019-05-20T01:35:27.034Z,30.50
2019-05-20T01:40:32.292Z,26.80
2019-05-20T01:45:37.741Z,30.07
2019-05-20T01:50:43.403Z,35.13
2019-05-20T01:55:49.079Z,29.27
2019-05-20T02:00:54.502Z,29.17
2019-05-20T02:05:59.788Z,24.87
2019-05-20T02:11:05.463Z,28.90
2019-05-20T02:16:11.037Z,30.30
2019-05-20T02:21:16.487Z,30.43
2019-05-20T02:26:21.935Z,24.60
2019-05-20T02:31:27.512Z,23.77
2019-05-20T02:36:32.966Z,27.90
2019-05-20T02:41:38.207Z,27.70
2019-05-20T02:46:43.324Z,25.00
2019-05-20T02:51:48.843Z,27.47
2019-05-20T02:56:54.099Z,27.63
2019-05-20T03:01:59.242Z,28.70
2019-05-20T03:07:05.711Z,26.97
2019-05-20T03:12:10.849Z,28.57
2019-05-20T03:17:16.352Z,26.00
2019-05-20T03:22:22.018Z,28.07
2019-05-20T03:27:27.376Z,27.53
2019-05-20T03:32:32.822Z,24.40
2019-05-20T03:37:38.304Z,24.00
2019-05-20T03:42:43.605Z,25.43
2019-05-20T03:47:49.040Z,26.43
2019-05-20T03:52:54.503Z,25.80
2019-05-20T03:57:59.935Z,25.57
2019-05-20T04:03:05.507Z,25.33
2019-05-20T04:08:11.080Z,26.77
2019-05-20T04:13:16.532Z,62.27
2019-05-20T04:18:21.885Z,48.90
2019-05-20T04:23:27.250Z,50.07
2019-05-20T04:28:32.436Z,40.90
2019-05-20T04:33:40.627Z,50.63
2019-05-20T04:38:45.952Z,46.07
2019-05-20T04:43:51.243Z,50.33
2019-05-20T04:48:56.937Z,50.50
2019-05-20T04:54:02.078Z,52.43
2019-05-20T04:59:07.441Z,43.13
2019-05-20T05:04:12.763Z,40.20
2019-05-20T05:09:18.286Z,45.23
2019-05-20T05:14:23.572Z,35.43
2019-05-20T05:19:28.786Z,34.80
2019-05-20T05:24:34.418Z,33.27
2019-05-20T05:29:39.868Z,30.83
2019-05-20T05:34:45.119Z,30.17
2019-05-20T05:39:50.727Z,32.63
2019-05-20T05:44:55.798Z,35.80
2019-05-20T05:50:01.077Z,45.37
2019-05-20T05:55:07.156Z,43.13
2019-05-20T06:00:12.373Z,43.95
2019-05-20T06:05:17.856Z,44.53
2019-05-20T06:10:23.535Z,44.15
2019-05-20T06:15:28.877Z,48.27
2019-05-20T06:20:34.473Z,45.47
2019-05-20T06:25:39.849Z,51.27
2019-05-20T06:30:46.792Z,43.80
2019-05-20T06:35:52.066Z,41.73
2019-05-20T06:40:57.460Z,40.70
2019-05-20T06:46:03.020Z,36.67
2019-05-20T06:51:08.374Z,31.03
2019-05-20T06:56:13.840Z,28.77
2019-05-20T07:01:19.041Z,23.50
2019-05-20T07:06:24.338Z,21.23
2019-05-20T07:11:29.624Z,17.70
2019-05-20T07:16:34.998Z,14.23
2019-05-20T07:21:40.366Z,20.60
2019-05-20T07:26:45.831Z,121.43
2019-05-20T07:31:51.208Z,60.97
2019-05-20T07:37:03.323Z,16.33
2019-05-20T07:42:04.045Z,17.03
2019-05-20T07:47:11.198Z,11.67
2019-05-20T07:52:17.340Z,16.87
2019-05-20T07:57:25.020Z,13.97
2019-05-20T08:02:31.204Z,15.13
2019-05-20T08:07:51.191Z,14.37
2019-05-20T08:12:43.959Z,13.53
2019-05-20T08:17:49.534Z,15.13
2019-05-20T08:22:55.009Z,14.43
2019-05-20T08:28:00.387Z,15.43
2019-05-20T08:33:06.609Z,12.70
2019-05-20T08:38:11.972Z,12.87
2019-05-20T08:43:17.311Z,14.73
2019-05-20T08:48:22.831Z,16.17
2019-05-20T08:53:29.152Z,14.93
2019-05-20T08:58:34.319Z,15.80
2019-05-20T09:03:39.559Z,14.23
2019-05-20T09:08:44.960Z,17.93
2019-05-20T09:13:50.569Z,13.20
2019-05-20T09:18:55.820Z,18.30
2019-05-20T09:24:01.229Z,16.33
2019-05-20T09:29:10.766Z,13.33
2019-05-20T09:34:13.791Z,12.33
2019-05-20T09:39:19.137Z,14.40
2019-05-20T09:44:24.478Z,14.28
2019-05-20T09:49:29.709Z,13.47
2019-05-20T09:54:34.986Z,18.73
2019-05-20T09:59:43.434Z,12.80
2019-05-20T10:04:47.489Z,13.50
2019-05-20T10:09:53.042Z,14.77
2019-05-20T10:14:58.512Z,13.57
2019-05-20T10:20:05.502Z,13.37
2019-05-20T10:25:11.738Z,11.97
2019-05-20T10:30:17.411Z,14.43
2019-05-20T10:35:22.833Z,17.90
2019-05-20T10:40:28.089Z,18.30
2019-05-20T10:45:34.344Z,16.37
2019-05-20T10:50:41.426Z,14.70
2019-05-20T10:55:46.715Z,15.50
2019-05-20T11:01:02.369Z,12.28
2019-05-20T11:05:59.165Z,12.13
2019-05-20T11:11:04.647Z,10.43
2019-05-20T11:16:10.303Z,13.07
2019-05-20T11:21:15.942Z,13.60
2019-05-20T11:26:21.506Z,12.03
2019-05-20T11:31:26.947Z,14.03
2019-05-20T11:36:32.442Z,14.17
2019-05-20T11:41:53.003Z,11.60
2019-05-20T11:46:45.400Z,12.73
2019-05-20T11:51:50.549Z,11.13
2019-05-20T11:56:55.728Z,14.87
2019-05-20T12:02:03.839Z,12.87
2019-05-20T12:07:08.701Z,18.90
2019-05-20T12:12:14.347Z,12.27
2019-05-20T12:17:19.531Z,10.00
2019-05-20T12:22:24.702Z,11.27
2019-05-20T12:27:30.080Z,11.03
2019-05-20T12:32:35.603Z,11.70
2019-05-20T12:37:40.799Z,11.27
2019-05-20T12:42:46.125Z,12.47
2019-05-20T12:47:51.547Z,12.67
2019-05-20T12:52:56.785Z,9.20
2019-05-20T12:58:02.076Z,9.50
2019-05-20T13:03:07.418Z,10.17
2019-05-20T13:08:12.996Z,7.87
2019-05-20T13:13:18.381Z,8.78
2019-05-20T13:18:23.677Z,6.78
2019-05-20T13:23:29.061Z,7.35
2019-05-20T13:28:34.425Z,9.60
2019-05-20T13:33:39.813Z,7.17
2019-05-20T13:38:45.302Z,7.10
2019-05-20T13:43:52.043Z,9.07
2019-05-20T13:48:57.284Z,9.93
2019-05-20T13:54:02.515Z,6.37
2019-05-20T13:59:07.701Z,8.85
2019-05-20T14:04:12.923Z,8.10
2019-05-20T14:09:20.066Z,12.05
2019-05-20T14:14:25.416Z,7.97
2019-05-20T14:19:31.879Z,12.97
2019-05-20T14:24:37.364Z,9.73
2019-05-20T14:29:43.955Z,11.17
2019-05-20T14:34:49.185Z,13.97
2019-05-20T14:39:54.544Z,11.40
2019-05-20T14:45:00.021Z,11.80
2019-05-20T14:50:07.660Z,10.47
2019-05-20T14:55:13.227Z,14.93
2019-05-20T15:00:18.826Z,11.63
2019-05-20T15:05:24.299Z,14.50
2019-05-20T15:10:29.990Z,10.00
2019-05-20T15:15:35.849Z,17.47
2019-05-20T15:20:41.144Z,13.47
2019-05-20T15:25:46.603Z,18.43
2019-05-20T15:30:52.087Z,12.10
2019-05-20T15:35:58.226Z,12.30
2019-05-20T15:41:03.713Z,9.48
2019-05-20T15:46:08.941Z,13.00
2019-05-20T15:51:14.249Z,15.03
2019-05-20T15:56:19.666Z,15.63
2019-05-20T16:01:25.023Z,12.10
2019-05-20T16:06:30.461Z,9.10
2019-05-20T16:11:35.685Z,11.00
2019-05-20T16:16:40.980Z,12.43
2019-05-20T16:21:47.930Z,14.57
2019-05-20T16:26:53.454Z,21.70
2019-05-20T16:31:58.794Z,10.60
2019-05-20T16:37:04.320Z,11.27
2019-05-20T16:42:12.025Z,13.57
2019-05-20T16:47:17.392Z,11.67
2019-05-20T16:52:22.545Z,17.67
2019-05-20T16:57:28.094Z,16.77
2019-05-20T17:02:33.520Z,12.30
2019-05-20T17:07:39.829Z,12.10
2019-05-20T17:12:45.271Z,17.20
2019-05-20T17:17:50.594Z,9.63
2019-05-20T17:22:56.181Z,14.07
2019-05-20T17:28:01.465Z,15.87
2019-05-20T17:33:06.854Z,14.23
2019-05-20T17:38:13.109Z,17.87
2019-05-20T17:43:20.215Z,14.60
2019-05-20T17:48:25.590Z,13.50
2019-05-20T17:53:30.953Z,13.20
2019-05-20T17:58:37.408Z,18.60
2019-05-20T18:03:43.049Z,13.50
2019-05-20T18:08:50.153Z,14.07
2019-05-20T18:13:55.250Z,12.27
2019-05-20T18:19:00.689Z,8.33
2019-05-20T18:24:06.254Z,11.83
2019-05-20T18:29:11.726Z,13.30
2019-05-20T18:34:16.887Z,12.07
2019-05-20T18:39:22.066Z,15.90
2019-05-20T18:44:27.621Z,15.97
2019-05-20T18:49:33.183Z,14.43
2019-05-20T18:54:38.623Z,24.10
2019-05-20T18:59:44.637Z,15.73
2019-05-20T19:04:49.966Z,18.33
2019-05-20T19:09:55.262Z,22.30
2019-05-20T19:15:00.482Z,13.93
2019-05-20T19:20:07.229Z,8.60
2019-05-20T19:25:12.434Z,12.33
2019-05-20T19:30:17.953Z,10.93
2019-05-20T19:35:23.274Z,10.33
2019-05-20T19:40:28.548Z,10.87
2019-05-20T19:45:33.912Z,11.77
2019-05-20T19:50:39.348Z,14.97
2019-05-20T19:55:44.614Z,13.53
2019-05-20T20:00:51.744Z,15.53
2019-05-20T20:05:57.345Z,16.47
2019-05-20T20:11:02.761Z,14.00
2019-05-20T20:16:07.993Z,15.37
2019-05-20T20:21:13.165Z,13.90
2019-05-20T20:26:18.700Z,17.50
2019-05-20T20:31:23.958Z,19.40
2019-05-20T20:36:29.036Z,21.53
2019-05-20T20:41:34.402Z,22.07
2019-05-20T20:46:40.715Z,22.00
2019-05-20T20:51:47.750Z,16.87
2019-05-20T20:56:53.215Z,20.37
2019-05-20T21:01:59.350Z,18.83
2019-05-20T21:07:05.054Z,18.87
2019-05-20T21:12:10.430Z,16.03
2019-05-20T21:17:15.604Z,19.33
2019-05-20T21:22:21.184Z,21.07
2019-05-20T21:27:26.434Z,17.87
2019-05-20T21:32:31.940Z,20.30
2019-05-20T21:37:37.154Z,19.90
2019-05-20T21:42:42.307Z,19.43
2019-05-20T21:47:47.566Z,26.37
2019-05-20T21:52:52.900Z,22.07
2019-05-20T21:57:58.027Z,26.43
2019-05-20T22:03:03.335Z,24.13
2019-05-20T22:08:08.956Z,21.37
2019-05-20T22:13:14.325Z,21.30
2019-05-20T22:18:19.759Z,21.07
2019-05-20T22:23:38.718Z,19.77
2019-05-20T22:28:44.112Z,23.33
2019-05-20T22:33:49.351Z,20.37
2019-05-20T22:38:54.697Z,23.83
2019-05-20T22:43:59.970Z,20.23
2019-05-20T22:49:05.430Z,26.53
2019-05-20T22:54:10.746Z,23.77
2019-05-20T22:59:15.919Z,22.73
2019-05-20T23:04:21.507Z,18.45
2019-05-20T23:09:26.827Z,36.20
2019-05-20T23:14:32.228Z,29.43
2019-05-20T23:19:37.590Z,24.03
2019-05-20T23:24:43.037Z,26.03
2019-05-20T23:29:48.432Z,19.73
2019-05-20T23:34:53.575Z,19.63
2019-05-20T23:39:58.725Z,26.97
2019-05-20T23:45:06.725Z,22.20
2019-05-20T23:50:12.613Z,17.32
2019-05-20T23:55:17.896Z,35.87
